Time;durP1;ratioP1;P1;durP2;ratioP2;P2;SDS_P1;SDS_P2;PMS_P1;PMS_P2;Temp;Humidity;BMP_temperature;BMP_pressure;BME280_temperature;BME280_humidity;BME280_pressure;Samples;Min_cycle;Max_cycle;Signal;HPM_P1;HPM_P2
2022/05/19 00:02:00;;;;;;;2.20;1.95;;;21.50;55.20;;;;;;945562;149;27383;-74
2022/05/19 00:04:26;;;;;;;3.58;2.52;;;21.40;55.20;;;;;;963236;146;27455;-74
2022/05/19 00:06:53;;;;;;;2.60;2.40;;;21.40;55.30;;;;;;963145;146;27333;-74
2022/05/19 00:09:20;;;;;;;2.85;2.37;;;21.40;55.40;;;;;;962435;146;27398;-74
2022/05/19 00:11:46;;;;;;;2.60;2.25;;;21.40;55.60;;;;;;952002;149;27344;-74
2022/05/19 00:14:13;;;;;;;2.25;2.05;;;21.30;55.60;;;;;;961945;146;27326;-74
2022/05/19 00:16:39;;;;;;;2.12;2.02;;;21.30;55.70;;;;;;963367;146;27374;-74
2022/05/19 00:19:06;;;;;;;2.20;2.00;;;21.30;55.80;;;;;;947119;149;27465;-74
2022/05/19 00:21:33;;;;;;;3.05;2.47;;;21.20;55.90;;;;;;951913;148;27491;-74
2022/05/19 00:23:59;;;;;;;2.20;2.00;;;21.20;56.00;;;;;;953511;149;27318;-74
2022/05/19 00:26:26;;;;;;;2.50;2.25;;;21.20;56.00;;;;;;953581;148;27855;-74
2022/05/19 00:28:52;;;;;;;2.65;2.45;;;21.20;56.40;;;;;;953562;148;27349;-74
2022/05/19 00:31:19;;;;;;;2.20;2.10;;;21.10;56.20;;;;;;953422;148;27372;-74
2022/05/19 00:33:45;;;;;;;2.52;2.17;;;21.10;56.40;;;;;;952308;148;27309;-74
2022/05/19 00:36:12;;;;;;;2.50;2.30;;;21.10;56.40;;;;;;947823;151;27410;-73
2022/05/19 00:38:39;;;;;;;2.37;2.27;;;21.00;56.20;;;;;;956615;148;27357;-74
2022/05/19 00:41:05;;;;;;;2.00;1.90;;;21.00;56.50;;;;;;950882;147;27303;-74
2022/05/19 00:43:32;;;;;;;2.58;2.30;;;20.90;56.60;;;;;;952291;149;27345;-74
2022/05/19 00:46:04;;;;;;;2.70;2.50;;;20.90;56.60;;;;;;952165;148;27306;-74
2022/05/19 00:48:31;;;;;;;2.65;2.20;;;20.90;56.70;;;;;;952264;149;27245;-74
2022/05/19 00:50:58;;;;;;;2.30;2.10;;;20.80;56.70;;;;;;952991;148;27227;-74
2022/05/19 00:53:30;;;;;;;3.00;2.10;;;20.80;56.80;;;;;;953044;149;27429;-74
2022/05/19 00:55:57;;;;;;;2.40;2.20;;;20.80;56.90;;;;;;953845;149;27454;-74
2022/05/19 00:58:23;;;;;;;2.12;2.02;;;20.80;56.90;;;;;;953037;150;27307;-74
2022/05/19 01:00:50;;;;;;;2.30;2.10;;;20.70;57.00;;;;;;952193;149;27781;-74
2022/05/19 01:03:16;;;;;;;2.40;2.20;;;20.70;57.00;;;;;;952924;148;27391;-74
2022/05/19 01:05:43;;;;;;;3.37;2.40;;;20.70;57.70;;;;;;952817;150;27271;-74
2022/05/19 01:08:16;;;;;;;2.33;2.10;;;20.70;57.20;;;;;;952135;149;27856;-74
2022/05/19 01:10:42;;;;;;;2.15;2.05;;;20.60;57.10;;;;;;951693;149;27353;-74
2022/05/19 01:13:10;;;;;;;4.03;2.30;;;20.60;57.20;;;;;;953133;150;27311;-74
2022/05/19 01:15:35;;;;;;;2.52;2.05;;;20.60;57.30;;;;;;953410;148;27363;-74
2022/05/19 01:18:02;;;;;;;2.77;2.00;;;20.60;57.30;;;;;;952820;149;27363;-74
2022/05/19 01:20:28;;;;;;;2.83;2.22;;;20.50;57.30;;;;;;953290;148;27438;-74
2022/05/19 01:22:55;;;;;;;2.05;1.95;;;20.50;57.30;;;;;;952998;148;27419;-74
2022/05/19 01:25:43;;;;;;;2.30;2.10;;;20.50;57.40;;;;;;953696;148;27346;-74
2022/05/19 01:28:09;;;;;;;2.00;1.90;;;20.40;57.40;;;;;;946309;149;27416;-74
2022/05/19 01:30:36;;;;;;;2.70;2.50;;;20.40;57.30;;;;;;945935;149;27361;-74
2022/05/19 01:33:02;;;;;;;2.62;2.40;;;20.40;57.40;;;;;;949462;150;27415;-74
2022/05/19 01:35:33;;;;;;;2.05;1.95;;;20.30;57.40;;;;;;944297;149;27372;-74
2022/05/19 01:37:56;;;;;;;4.53;2.22;;;20.30;57.40;;;;;;951124;148;27337;-74
2022/05/19 01:40:25;;;;;;;2.00;1.90;;;20.30;57.50;;;;;;951592;149;27291;-74
2022/05/19 01:42:57;;;;;;;2.33;1.75;;;20.20;57.50;;;;;;947922;150;27975;-74
2022/05/19 01:46:00;;;;;;;2.20;2.00;;;20.20;57.50;;;;;;948035;148;27370;-74
2022/05/19 01:48:32;;;;;;;6.03;2.37;;;20.20;57.50;;;;;;948920;151;27363;-74
2022/05/19 01:50:59;;;;;;;2.27;2.08;;;20.20;57.40;;;;;;948332;148;27323;-74
2022/05/19 01:53:31;;;;;;;2.10;2.00;;;20.20;57.50;;;;;;920842;150;27264;-74
2022/05/19 01:56:01;;;;;;;2.30;2.10;;;20.10;57.60;;;;;;948056;148;27460;-74
2022/05/19 01:58:36;;;;;;;2.00;1.87;;;20.10;57.60;;;;;;948209;150;27432;-74
2022/05/19 02:01:04;;;;;;;1.80;1.70;;;20.10;57.60;;;;;;948368;151;27381;-73
2022/05/19 02:03:38;;;;;;;2.30;2.10;;;20.00;57.60;;;;;;947649;151;27339;-74
2022/05/19 02:06:20;;;;;;;2.47;2.27;;;20.00;57.60;;;;;;948265;150;27307;-74
2022/05/19 02:08:49;;;;;;;2.00;1.90;;;20.00;57.70;;;;;;943665;151;27426;-74
2022/05/19 02:11:23;;;;;;;2.60;2.40;;;19.90;57.70;;;;;;947515;150;27453;-74
2022/05/19 02:13:48;;;;;;;3.10;2.30;;;19.90;57.80;;;;;;923973;149;27337;-74
2022/05/19 02:16:15;;;;;;;4.72;2.77;;;19.90;57.90;;;;;;961695;146;27448;-74
2022/05/19 02:18:41;;;;;;;2.12;1.92;;;19.90;58.00;;;;;;949043;149;27337;-74
2022/05/19 02:21:08;;;;;;;2.27;2.08;;;19.80;58.00;;;;;;951494;149;27423;-74
2022/05/19 02:23:34;;;;;;;2.52;2.35;;;19.80;58.10;;;;;;944393;149;27360;-75
2022/05/19 02:26:01;;;;;;;2.35;2.15;;;19.80;58.20;;;;;;949211;149;27325;-75
2022/05/19 02:28:31;;;;;;;2.60;2.40;;;19.70;58.30;;;;;;962033;146;27307;-74
2022/05/19 02:30:57;;;;;;;2.87;2.27;;;19.70;58.30;;;;;;961210;146;27367;-74
2022/05/19 02:33:23;;;;;;;2.30;2.20;;;19.60;58.40;;;;;;947071;150;27387;-74
2022/05/19 02:35:50;;;;;;;2.30;2.20;;;19.60;58.70;;;;;;946618;149;27265;-74
2022/05/19 02:38:16;;;;;;;3.72;2.08;;;19.60;58.80;;;;;;946694;151;27237;-75
2022/05/19 02:40:43;;;;;;;2.42;2.22;;;19.60;58.90;;;;;;946847;150;27271;-74
2022/05/19 02:43:10;;;;;;;2.10;1.90;;;19.50;58.90;;;;;;931422;154;27362;-75
2022/05/19 02:45:36;;;;;;;2.20;2.05;;;19.50;58.90;;;;;;949192;151;27328;-75
2022/05/19 02:48:03;;;;;;;2.10;2.00;;;19.50;59.00;;;;;;933137;149;27279;-74
2022/05/19 02:50:29;;;;;;;2.15;1.95;;;19.40;59.00;;;;;;944774;151;27503;-75
2022/05/19 02:52:56;;;;;;;2.02;1.92;;;19.40;59.00;;;;;;931255;154;27390;-75
2022/05/19 02:55:23;;;;;;;2.30;2.10;;;19.40;59.00;;;;;;948630;148;27325;-74
2022/05/19 02:57:49;;;;;;;2.22;2.02;;;19.30;59.00;;;;;;949014;148;27352;-74
2022/05/19 03:00:16;;;;;;;2.40;2.20;;;19.30;59.10;;;;;;930952;152;27361;-74
2022/05/19 03:02:43;;;;;;;2.30;2.10;;;19.30;59.20;;;;;;936039;150;27809;-75
2022/05/19 03:05:09;;;;;;;2.40;2.17;;;19.20;59.20;;;;;;945053;151;28733;-74
2022/05/19 03:07:36;;;;;;;1.95;1.82;;;19.20;59.30;;;;;;932770;150;27283;-74
2022/05/19 03:10:02;;;;;;;2.87;2.20;;;19.20;59.30;;;;;;930894;153;27429;-74
2022/05/19 03:12:29;;;;;;;2.08;1.98;;;19.20;58.70;;;;;;938356;149;27359;-75
2022/05/19 03:14:55;;;;;;;1.95;1.85;;;19.20;59.30;;;;;;948186;151;28857;-75
2022/05/19 03:17:22;;;;;;;1.82;1.72;;;19.20;59.30;;;;;;947959;151;27317;-75
2022/05/19 03:19:49;;;;;;;2.27;2.00;;;19.20;59.80;;;;;;949032;148;27304;-74
2022/05/19 03:22:15;;;;;;;2.22;1.98;;;19.10;59.20;;;;;;948074;151;27445;-74
2022/05/19 03:24:42;;;;;;;2.95;2.05;;;19.20;59.10;;;;;;945650;151;27373;-74
2022/05/19 03:27:08;;;;;;;1.92;1.55;;;19.20;59.00;;;;;;947962;149;27289;-75
2022/05/19 03:29:35;;;;;;;1.80;1.70;;;19.20;58.90;;;;;;948617;151;27308;-74
2022/05/19 03:32:01;;;;;;;2.12;1.52;;;19.20;58.70;;;;;;937213;149;27446;-74
2022/05/19 03:34:28;;;;;;;1.90;1.70;;;19.20;58.60;;;;;;945449;148;27364;-75
2022/05/19 03:36:55;;;;;;;1.45;1.35;;;19.20;58.50;;;;;;933402;151;27375;-75
2022/05/19 03:39:21;;;;;;;1.60;1.50;;;19.20;58.50;;;;;;941561;152;27443;-75
2022/05/19 03:41:48;;;;;;;1.60;1.50;;;19.30;58.30;;;;;;928587;154;27353;-75
2022/05/19 03:44:14;;;;;;;1.60;1.50;;;19.30;57.60;;;;;;944701;151;27294;-75
2022/05/19 03:46:41;;;;;;;1.70;1.60;;;19.30;58.20;;;;;;933194;151;27793;-74
2022/05/19 03:49:09;;;;;;;1.80;1.70;;;19.30;58.20;;;;;;930239;152;27430;-74
2022/05/19 03:51:34;;;;;;;2.30;1.60;;;19.30;58.20;;;;;;929212;154;27406;-74
2022/05/19 03:54:01;;;;;;;1.60;1.50;;;19.30;58.20;;;;;;945122;151;27288;-75
2022/05/19 03:56:27;;;;;;;1.60;1.50;;;19.30;58.10;;;;;;929702;151;27330;-75
2022/05/19 03:58:54;;;;;;;1.65;1.55;;;19.30;58.20;;;;;;930252;154;27455;-74
2022/05/19 04:01:21;;;;;;;1.80;1.70;;;19.30;58.10;;;;;;930447;152;27299;-75
2022/05/19 04:03:47;;;;;;;2.10;1.50;;;19.30;58.10;;;;;;930009;152;27364;-75
2022/05/19 04:06:14;;;;;;;2.95;1.50;;;19.30;58.10;;;;;;927948;154;27368;-75
2022/05/19 04:08:40;;;;;;;3.02;1.82;;;19.30;58.10;;;;;;944977;151;27406;-75
2022/05/19 04:11:07;;;;;;;1.60;1.50;;;19.40;58.20;;;;;;945740;151;27355;-75
2022/05/19 04:13:33;;;;;;;2.47;1.60;;;19.40;58.00;;;;;;934710;151;27395;-74
2022/05/19 04:16:00;;;;;;;1.92;1.72;;;19.50;58.60;;;;;;945110;151;27604;-75
2022/05/19 04:18:27;;;;;;;1.45;1.35;;;19.50;58.00;;;;;;928702;154;27373;-75
2022/05/19 04:20:53;;;;;;;1.35;1.25;;;19.50;58.50;;;;;;928248;154;27303;-75
2022/05/19 04:23:20;;;;;;;1.80;1.57;;;19.60;57.80;;;;;;945941;149;27260;-74
2022/05/19 04:25:46;;;;;;;2.83;1.77;;;19.70;57.80;;;;;;945261;151;27304;-75
2022/05/19 04:28:13;;;;;;;1.75;1.40;;;19.80;57.80;;;;;;935517;151;27373;-75
2022/05/19 04:30:41;;;;;;;1.50;1.40;;;19.80;57.70;;;;;;929636;152;27470;-75
2022/05/19 04:33:06;;;;;;;3.08;1.50;;;19.90;57.60;;;;;;930463;151;27307;-75
2022/05/19 04:35:33;;;;;;;2.90;1.45;;;20.00;57.60;;;;;;942448;149;27478;-75
2022/05/19 04:38:02;;;;;;;2.45;1.55;;;20.10;57.60;;;;;;928659;150;27343;-75
2022/05/19 04:40:26;;;;;;;1.70;1.60;;;20.20;57.50;;;;;;944317;148;27271;-75
2022/05/19 04:42:53;;;;;;;2.02;1.87;;;20.20;57.40;;;;;;944573;148;27430;-75
2022/05/19 04:45:19;;;;;;;1.40;1.30;;;20.40;57.40;;;;;;925674;151;28405;-75
2022/05/19 04:47:47;;;;;;;1.50;1.40;;;20.40;57.30;;;;;;927431;150;27417;-75
2022/05/19 04:50:13;;;;;;;1.80;1.70;;;20.50;57.20;;;;;;941452;149;27379;-74
2022/05/19 04:52:39;;;;;;;1.55;1.45;;;20.60;57.20;;;;;;941823;149;27424;-75
2022/05/19 04:55:05;;;;;;;1.57;1.47;;;20.80;57.30;;;;;;942322;149;27415;-75
2022/05/19 04:57:32;;;;;;;2.00;1.90;;;21.00;57.30;;;;;;941753;149;27502;-75
2022/05/19 04:59:59;;;;;;;4.10;1.65;;;21.20;57.50;;;;;;942571;149;27266;-75
2022/05/19 05:02:25;;;;;;;1.75;1.65;;;21.40;57.60;;;;;;941986;149;27668;-75
2022/05/19 05:04:52;;;;;;;1.60;1.50;;;21.70;57.50;;;;;;941512;149;28167;-75
2022/05/19 05:07:18;;;;;;;2.35;1.52;;;22.10;57.30;;;;;;943093;149;27357;-75
2022/05/19 05:09:45;;;;;;;1.50;1.40;;;22.40;57.00;;;;;;933704;150;27385;-75
2022/05/19 05:12:12;;;;;;;2.37;1.50;;;22.80;56.80;;;;;;931299;150;27419;-75
2022/05/19 05:14:38;;;;;;;1.35;1.25;;;23.10;56.50;;;;;;942941;149;27409;-75
2022/05/19 05:17:05;;;;;;;1.70;1.60;;;23.50;56.10;;;;;;942647;149;27299;-75
2022/05/19 05:19:31;;;;;;;2.60;1.60;;;23.80;55.80;;;;;;942301;149;27414;-75
2022/05/19 05:21:58;;;;;;;1.57;1.42;;;24.10;55.50;;;;;;942572;149;27343;-75
2022/05/19 05:24:25;;;;;;;1.65;1.55;;;24.50;55.10;;;;;;941819;149;27657;-75
2022/05/19 05:26:51;;;;;;;3.40;2.05;;;24.90;54.80;;;;;;942072;149;27275;-75
2022/05/19 05:29:19;;;;;;;1.62;1.35;;;25.30;54.50;;;;;;942830;149;27398;-75
2022/05/19 05:31:44;;;;;;;2.00;1.80;;;25.70;54.10;;;;;;942208;149;27325;-75
2022/05/19 05:34:11;;;;;;;3.25;1.77;;;26.20;53.90;;;;;;934365;150;27464;-75
2022/05/19 05:36:38;;;;;;;1.52;1.42;;;26.70;53.60;;;;;;940708;151;27440;-75
2022/05/19 05:39:04;;;;;;;2.25;1.70;;;27.10;52.90;;;;;;939540;152;27317;-76
2022/05/19 05:41:31;;;;;;;1.70;1.60;;;27.60;52.40;;;;;;940147;152;27346;-75
2022/05/19 05:43:57;;;;;;;1.92;1.70;;;28.10;51.90;;;;;;940301;151;27297;-76
2022/05/19 05:46:24;;;;;;;2.02;1.55;;;28.50;50.90;;;;;;940210;152;27394;-76
2022/05/19 05:48:51;;;;;;;2.12;1.55;;;28.80;50.20;;;;;;940183;149;27413;-76
2022/05/19 05:51:17;;;;;;;2.47;1.70;;;29.20;49.60;;;;;;940405;149;27935;-76
2022/05/19 05:53:44;;;;;;;1.60;1.50;;;29.40;49.10;;;;;;940766;150;27282;-76
2022/05/19 05:56:10;;;;;;;2.17;1.70;;;29.70;48.70;;;;;;939994;149;27258;-76
2022/05/19 05:58:37;;;;;;;1.60;1.50;;;29.90;48.10;;;;;;940494;151;27318;-76
2022/05/19 06:01:03;;;;;;;2.15;1.60;;;30.10;47.60;;;;;;940396;152;27436;-76
2022/05/19 06:03:30;;;;;;;3.33;2.10;;;30.40;47.30;;;;;;940094;152;27430;-76
2022/05/19 06:05:57;;;;;;;2.87;1.70;;;30.60;47.00;;;;;;939803;152;27250;-76
2022/05/19 06:08:23;;;;;;;1.80;1.70;;;30.90;46.80;;;;;;940274;150;27401;-76
2022/05/19 06:10:50;;;;;;;2.17;1.55;;;31.10;46.30;;;;;;944204;149;27314;-75
2022/05/19 06:13:16;;;;;;;1.52;1.12;;;31.50;46.20;;;;;;943872;149;27358;-76
2022/05/19 06:15:43;;;;;;;2.25;1.60;;;31.80;45.60;;;;;;944058;149;27398;-76
2022/05/19 06:18:10;;;;;;;1.70;1.60;;;32.20;45.30;;;;;;944168;149;27425;-76
2022/05/19 06:20:36;;;;;;;3.08;1.45;;;32.50;45.30;;;;;;943919;149;27314;-76
2022/05/19 06:23:03;;;;;;;1.60;1.50;;;32.90;44.80;;;;;;943896;149;27431;-76
2022/05/19 06:25:29;;;;;;;2.67;1.70;;;33.30;43.50;;;;;;943649;149;27449;-76
2022/05/19 06:27:56;;;;;;;1.67;1.57;;;33.70;43.40;;;;;;943851;149;27363;-76
2022/05/19 06:30:22;;;;;;;1.42;1.32;;;34.00;42.80;;;;;;943347;149;27478;-76
2022/05/19 06:32:49;;;;;;;1.90;1.52;;;34.30;42.10;;;;;;943050;149;27419;-76
2022/05/19 06:35:19;;;;;;;1.82;1.35;;;34.50;41.40;;;;;;946990;148;27849;-79
2022/05/19 06:37:45;;;;;;;2.27;1.60;;;34.70;41.20;;;;;;950266;148;27367;-79
2022/05/19 06:40:13;;;;;;;1.72;1.62;;;34.90;40.50;;;;;;951358;148;27353;-79
2022/05/19 06:42:38;;;;;;;1.55;1.45;;;35.00;40.20;;;;;;951606;148;27361;-80
2022/05/19 06:45:05;;;;;;;1.80;1.50;;;35.10;39.90;;;;;;952278;148;27334;-79
2022/05/19 06:47:32;;;;;;;3.00;1.62;;;35.30;39.50;;;;;;951737;148;27416;-81
2022/05/19 06:49:58;;;;;;;1.50;1.40;;;35.40;39.10;;;;;;952191;148;27398;-80
2022/05/19 06:52:25;;;;;;;2.87;1.42;;;35.50;39.10;;;;;;952395;148;27408;-77
2022/05/19 06:54:51;;;;;;;1.90;1.67;;;35.70;38.90;;;;;;952104;148;26356;-81
2022/05/19 06:57:19;;;;;;;2.62;1.80;;;36.00;38.70;;;;;;951388;148;27341;-80
2022/05/19 06:59:45;;;;;;;4.10;1.30;;;36.30;38.10;;;;;;952564;148;26176;-78
2022/05/19 07:02:11;;;;;;;1.50;1.40;;;36.50;38.00;;;;;;952429;148;26344;-79
2022/05/19 07:04:38;;;;;;;2.17;1.60;;;36.80;37.60;;;;;;952191;148;26337;-78
2022/05/19 07:07:07;;;;;;;1.50;1.40;;;37.00;37.00;;;;;;952589;148;26311;-80
2022/05/19 07:09:33;;;;;;;2.90;1.80;;;37.30;36.80;;;;;;952471;148;26272;-81
2022/05/19 07:12:00;;;;;;;3.62;1.50;;;37.50;36.50;;;;;;951864;148;26321;-78
2022/05/19 07:14:27;;;;;;;2.17;1.50;;;37.80;36.40;;;;;;952752;148;27331;-80
2022/05/19 07:16:53;;;;;;;2.83;1.60;;;38.10;36.20;;;;;;952742;148;26296;-77
2022/05/19 07:22:05;;;;;;;2.75;1.20;;;38.90;35.50;;;;;;951615;148;26377;-81
2022/05/19 07:24:31;;;;;;;2.62;1.40;;;39.40;35.10;;;;;;952394;148;26207;-80
2022/05/19 07:26:58;;;;;;;1.00;0.90;;;39.80;34.50;;;;;;952130;148;26247;-81
2022/05/19 07:29:24;;;;;;;2.40;1.70;;;40.20;33.90;;;;;;952229;148;26256;-80
2022/05/19 07:31:51;;;;;;;2.40;1.25;;;40.60;33.50;;;;;;952054;148;26383;-80
2022/05/19 07:34:17;;;;;;;2.70;1.15;;;40.90;32.70;;;;;;951250;148;26291;-79
2022/05/19 07:36:44;;;;;;;2.30;1.17;;;41.30;32.00;;;;;;946690;150;26354;-80
2022/05/19 07:39:13;;;;;;;2.17;1.17;;;41.40;30.90;;;;;;945617;149;26276;-82
2022/05/19 07:41:37;;;;;;;5.30;1.30;;;41.50;30.70;;;;;;944762;151;26233;-80
2022/05/19 07:44:04;;;;;;;1.12;1.05;;;41.50;30.40;;;;;;943888;149;26373;-79
2022/05/19 07:46:30;;;;;;;2.52;1.15;;;41.60;30.60;;;;;;944881;151;26269;-82
2022/05/19 07:48:57;;;;;;;2.47;1.10;;;41.60;30.30;;;;;;944802;151;26256;-81
2022/05/19 07:51:24;;;;;;;1.02;1.00;;;41.90;30.20;;;;;;944438;151;26288;-82
2022/05/19 07:53:50;;;;;;;0.88;0.82;;;42.10;30.30;;;;;;945650;151;26261;-82
2022/05/19 07:56:17;;;;;;;1.02;1.02;;;42.30;29.60;;;;;;945759;151;26249;-78
2022/05/19 07:58:43;;;;;;;0.70;0.70;;;42.50;29.20;;;;;;945508;149;26439;-81
2022/05/19 08:01:10;;;;;;;1.92;1.30;;;42.60;28.70;;;;;;944535;151;26279;-81
2022/05/19 08:03:37;;;;;;;2.90;1.12;;;42.70;28.50;;;;;;942729;151;26233;-80
2022/05/19 08:06:07;;;;;;;1.82;0.75;;;42.70;28.30;;;;;;943113;151;26403;-79
2022/05/19 08:08:30;;;;;;;0.90;0.90;;;42.70;28.30;;;;;;927687;153;26377;-80
2022/05/19 08:10:57;;;;;;;2.50;1.32;;;42.60;28.20;;;;;;944662;151;26261;-78
2022/05/19 08:16:08;;;;;;;2.50;1.10;;;42.50;27.80;;;;;;929501;154;26308;-78
2022/05/19 08:18:35;;;;;;;2.05;1.10;;;42.40;28.00;;;;;;929410;154;26358;-78
2022/05/19 08:21:01;;;;;;;3.62;1.20;;;42.40;27.70;;;;;;928547;154;26266;-78
2022/05/19 08:23:28;;;;;;;2.92;0.90;;;42.40;27.70;;;;;;933071;151;26220;-78
2022/05/19 08:25:54;;;;;;;1.10;1.00;;;42.50;27.80;;;;;;944885;151;26254;-78
2022/05/19 08:28:21;;;;;;;0.98;0.88;;;42.50;27.50;;;;;;932899;151;26319;-78
2022/05/19 08:30:48;;;;;;;1.02;0.90;;;42.70;27.50;;;;;;945217;151;26206;-78
2022/05/19 08:33:14;;;;;;;1.32;0.95;;;42.70;27.20;;;;;;929652;152;26273;-77
2022/05/19 08:35:41;;;;;;;1.92;0.93;;;42.80;27.00;;;;;;929634;151;26326;-78
2022/05/19 08:38:07;;;;;;;2.12;1.10;;;42.80;26.70;;;;;;945626;151;26319;-78
2022/05/19 08:40:34;;;;;;;1.05;0.85;;;42.70;26.50;;;;;;929926;154;26362;-78
2022/05/19 08:43:01;;;;;;;2.95;1.10;;;42.50;26.50;;;;;;925653;152;26863;-78
2022/05/19 08:45:36;;;;;;;2.40;1.00;;;42.40;26.50;;;;;;944272;151;26307;-78
2022/05/19 08:48:02;;;;;;;0.55;0.55;;;42.10;26.60;;;;;;927994;154;26254;-78
2022/05/19 08:50:38;;;;;;;2.17;1.10;;;41.90;26.70;;;;;;927354;152;26275;-78
2022/05/19 08:53:06;;;;;;;1.10;1.00;;;41.70;26.70;;;;;;939724;151;26357;-78
2022/05/19 08:55:31;;;;;;;1.77;1.22;;;41.40;26.70;;;;;;944675;151;27432;-78
2022/05/19 08:58:03;;;;;;;2.75;0.95;;;41.00;26.80;;;;;;928791;154;26621;-78
2022/05/19 09:00:33;;;;;;;1.50;1.32;;;40.70;26.80;;;;;;934640;151;27873;-78
2022/05/19 09:03:05;;;;;;;1.25;1.05;;;40.50;27.20;;;;;;929206;153;26289;-78
2022/05/19 09:05:42;;;;;;;1.42;1.20;;;40.40;27.50;;;;;;929867;153;27381;-78
2022/05/19 09:08:25;;;;;;;3.17;1.10;;;40.30;27.40;;;;;;929102;152;26291;-78
2022/05/19 09:11:00;;;;;;;3.58;1.10;;;40.40;27.70;;;;;;929792;153;26275;-78
2022/05/19 09:13:27;;;;;;;1.42;1.02;;;40.60;27.80;;;;;;929553;153;26237;-77
2022/05/19 09:15:53;;;;;;;1.75;0.98;;;40.80;27.80;;;;;;931380;151;26203;-78
2022/05/19 09:18:20;;;;;;;2.02;1.15;;;41.10;27.80;;;;;;929282;154;26322;-78
2022/05/19 09:20:52;;;;;;;1.17;1.00;;;41.40;27.70;;;;;;945085;151;26711;-77
2022/05/19 09:23:19;;;;;;;0.90;0.90;;;41.70;27.50;;;;;;930014;152;26332;-78
2022/05/19 09:25:48;;;;;;;1.12;1.05;;;42.00;27.20;;;;;;930176;154;26266;-78
2022/05/19 09:28:15;;;;;;;0.90;0.88;;;42.20;27.00;;;;;;930458;153;26276;-78
2022/05/19 09:30:41;;;;;;;1.15;1.15;;;42.40;26.90;;;;;;930708;152;26220;-78
2022/05/19 09:33:08;;;;;;;1.20;1.10;;;42.60;26.70;;;;;;930101;153;26269;-78
2022/05/19 09:35:35;;;;;;;1.80;1.27;;;42.70;26.70;;;;;;929354;153;26350;-78
2022/05/19 09:38:07;;;;;;;3.40;1.20;;;43.00;26.70;;;;;;956841;146;26356;-78
2022/05/19 09:40:33;;;;;;;1.40;1.30;;;43.10;26.50;;;;;;948964;149;26196;-78
2022/05/19 09:43:18;;;;;;;1.20;1.10;;;43.20;26.40;;;;;;947163;149;26373;-78
2022/05/19 09:45:45;;;;;;;0.88;0.85;;;43.40;26.40;;;;;;960023;146;26268;-77
2022/05/19 09:48:11;;;;;;;1.15;1.05;;;43.40;26.20;;;;;;943101;149;27964;-78
2022/05/19 09:50:38;;;;;;;3.15;1.05;;;43.40;25.80;;;;;;943554;149;26241;-78
2022/05/19 09:53:04;;;;;;;1.98;1.17;;;43.30;25.90;;;;;;949137;149;26277;-78
2022/05/19 09:55:31;;;;;;;1.57;1.32;;;43.20;26.00;;;;;;960831;146;26332;-78
2022/05/19 09:57:58;;;;;;;1.20;1.00;;;42.90;25.80;;;;;;961331;146;26363;-77
2022/05/19 10:00:33;;;;;;;1.65;1.22;;;42.70;25.70;;;;;;943691;149;26308;-78
2022/05/19 10:02:59;;;;;;;1.12;1.00;;;42.50;25.90;;;;;;951277;150;26184;-78
2022/05/19 10:05:38;;;;;;;2.27;1.22;;;42.10;26.00;;;;;;948498;150;26200;-78
2022/05/19 10:08:05;;;;;;;2.50;1.10;;;41.80;26.20;;;;;;918432;149;26366;-77
2022/05/19 10:10:31;;;;;;;2.15;1.10;;;41.40;26.20;;;;;;943253;149;27385;-77
2022/05/19 10:12:57;;;;;;;1.30;1.20;;;41.20;26.60;;;;;;949785;150;26219;-78
2022/05/19 10:15:26;;;;;;;0.90;0.90;;;40.90;26.60;;;;;;946462;150;26269;-77
2022/05/19 10:17:51;;;;;;;1.40;1.05;;;40.70;26.70;;;;;;948419;150;26241;-78
2022/05/19 10:20:21;;;;;;;0.93;0.93;;;40.50;26.80;;;;;;948306;150;26297;-77
2022/05/19 10:23:01;;;;;;;1.17;1.05;;;40.30;27.00;;;;;;946813;151;27350;-77
2022/05/19 10:25:43;;;;;;;1.32;1.22;;;40.10;27.10;;;;;;948345;150;26325;-78
2022/05/19 10:31:31;;;;;;;1.40;1.10;;;39.60;27.20;;;;;;947711;148;26649;-77
2022/05/19 10:34:31;;;;;;;3.80;1.40;;;39.30;27.40;;;;;;920123;149;26356;-77
2022/05/19 10:37:01;;;;;;;1.32;1.20;;;39.00;27.50;;;;;;949315;149;27478;-77
2022/05/19 10:39:57;;;;;;;2.37;1.12;;;38.70;27.70;;;;;;940691;149;26378;-77
2022/05/19 10:43:02;;;;;;;1.30;1.20;;;38.50;28.00;;;;;;941794;149;27766;-76
2022/05/19 10:45:39;;;;;;;3.40;1.30;;;38.30;28.00;;;;;;942761;149;26281;-77
2022/05/19 10:48:21;;;;;;;1.32;1.27;;;38.00;28.20;;;;;;929692;150;28449;-77
2022/05/19 10:50:53;;;;;;;1.47;1.25;;;37.90;28.50;;;;;;943070;148;27314;-78
2022/05/19 10:53:32;;;;;;;1.57;1.47;;;37.70;28.60;;;;;;926928;150;27340;-77
2022/05/19 10:56:16;;;;;;;3.45;1.37;;;37.50;28.60;;;;;;925823;150;27429;-77
2022/05/19 10:59:01;;;;;;;3.05;1.80;;;37.40;28.80;;;;;;931704;150;27449;-77
2022/05/19 11:01:51;;;;;;;1.20;1.10;;;37.20;28.80;;;;;;928278;150;27460;-77
2022/05/19 11:04:49;;;;;;;4.50;1.70;;;37.10;28.90;;;;;;925136;151;27403;-77
2022/05/19 11:07:27;;;;;;;4.15;1.30;;;36.90;29.30;;;;;;928056;152;27794;-76
2022/05/19 11:10:09;;;;;;;1.47;1.27;;;36.80;29.50;;;;;;926946;150;27356;-77
2022/05/19 11:12:50;;;;;;;1.50;1.40;;;36.70;29.50;;;;;;925873;151;27362;-77
2022/05/19 11:15:20;;;;;;;1.57;1.30;;;36.60;28.90;;;;;;944546;149;27446;-77
2022/05/19 11:18:16;;;;;;;1.82;1.50;;;36.50;29.50;;;;;;944742;149;27353;-77
2022/05/19 11:20:48;;;;;;;2.83;1.20;;;36.40;29.70;;;;;;920139;149;27346;-77
2022/05/19 11:23:30;;;;;;;1.30;1.20;;;36.20;30.00;;;;;;943929;149;27293;-78
2022/05/19 11:26:23;;;;;;;1.45;1.35;;;36.10;30.00;;;;;;944055;149;27386;-77
2022/05/19 11:28:51;;;;;;;2.02;1.35;;;36.10;30.20;;;;;;944644;149;27416;-77
2022/05/19 11:31:17;;;;;;;1.90;1.27;;;36.00;30.20;;;;;;943824;149;27291;-77
2022/05/19 11:33:44;;;;;;;2.17;1.60;;;36.00;30.50;;;;;;942755;149;27693;-77
2022/05/19 11:36:18;;;;;;;1.50;1.40;;;36.00;30.80;;;;;;944338;149;27337;-77
2022/05/19 11:38:48;;;;;;;3.08;1.32;;;36.00;30.70;;;;;;944585;149;27398;-77
2022/05/19 11:41:20;;;;;;;1.45;1.22;;;36.00;30.80;;;;;;932760;149;27843;-77
2022/05/19 11:44:10;;;;;;;3.10;1.45;;;36.00;30.90;;;;;;945049;149;26220;-77
2022/05/19 11:46:34;;;;;;;1.98;1.40;;;36.10;31.00;;;;;;944811;149;27360;-77
2022/05/19 11:55:13;;;;;;;2.72;1.25;;;36.40;31.10;;;;;;945520;149;27471;-77
2022/05/19 11:58:00;;;;;;;1.47;1.32;;;36.50;31.20;;;;;;945640;149;27431;-77
2022/05/19 12:00:24;;;;;;;1.90;1.30;;;36.50;31.20;;;;;;913761;150;27319;-77
2022/05/19 12:02:50;;;;;;;1.72;1.37;;;36.50;31.20;;;;;;930204;150;27355;-77
2022/05/19 12:05:36;;;;;;;1.45;1.35;;;36.60;31.20;;;;;;917280;150;27799;-77
2022/05/19 12:08:14;;;;;;;3.08;1.40;;;36.60;31.60;;;;;;944876;149;27365;-77
2022/05/19 12:10:40;;;;;;;3.30;1.50;;;36.60;31.20;;;;;;925405;150;27505;-77
2022/05/19 12:13:07;;;;;;;1.40;1.30;;;36.60;31.40;;;;;;942510;148;27287;-77
2022/05/19 12:15:34;;;;;;;1.60;1.50;;;36.60;31.30;;;;;;932682;150;27331;-77
2022/05/19 12:18:09;;;;;;;2.55;1.75;;;36.60;31.30;;;;;;942093;149;27455;-77
2022/05/19 12:20:38;;;;;;;1.42;1.30;;;36.60;32.00;;;;;;941062;149;27470;-77
2022/05/19 12:23:05;;;;;;;2.55;1.70;;;36.60;31.40;;;;;;941438;149;27342;-77
2022/05/19 12:25:32;;;;;;;2.42;1.52;;;36.70;31.60;;;;;;939083;149;27436;-77
2022/05/19 12:28:01;;;;;;;4.05;1.90;;;36.70;31.30;;;;;;942115;149;27334;-77
2022/05/19 12:33:35;;;;;;;1.82;1.72;;;36.80;31.60;;;;;;941660;149;26358;-77
2022/05/19 12:36:12;;;;;;;1.50;1.40;;;36.80;31.50;;;;;;942074;149;27455;-77
2022/05/19 12:38:39;;;;;;;1.37;1.15;;;36.90;31.60;;;;;;938248;149;26228;-77
2022/05/19 12:41:08;;;;;;;2.92;1.52;;;37.00;31.60;;;;;;928324;154;26348;-77
2022/05/19 12:43:40;;;;;;;2.00;1.55;;;36.90;31.80;;;;;;942905;151;27439;-77
2022/05/19 12:46:07;;;;;;;1.42;1.32;;;37.00;31.70;;;;;;928428;154;27896;-77
2022/05/19 12:48:34;;;;;;;2.02;1.35;;;37.10;31.60;;;;;;925395;154;26272;-77
2022/05/19 12:51:08;;;;;;;5.12;1.32;;;37.10;31.70;;;;;;926331;154;27295;-77
2022/05/19 12:53:39;;;;;;;1.42;1.30;;;37.10;31.90;;;;;;932587;151;27351;-77
2022/05/19 12:56:06;;;;;;;1.70;1.37;;;37.10;31.80;;;;;;930190;153;27462;-77
2022/05/19 12:58:38;;;;;;;3.98;1.30;;;37.10;31.70;;;;;;929497;154;27364;-77
2022/05/19 13:01:18;;;;;;;2.45;1.72;;;37.10;31.80;;;;;;928075;152;27409;-77
2022/05/19 13:03:45;;;;;;;2.62;1.40;;;37.10;31.70;;;;;;943593;151;27251;-77
2022/05/19 13:06:12;;;;;;;2.62;1.72;;;37.10;31.70;;;;;;930857;151;27367;-77
2022/05/19 13:08:38;;;;;;;1.47;1.37;;;37.10;31.70;;;;;;932717;151;27690;-77
2022/05/19 13:11:11;;;;;;;1.67;1.55;;;37.00;31.90;;;;;;929982;152;27335;-77
2022/05/19 13:13:40;;;;;;;3.92;2.00;;;37.00;31.80;;;;;;930151;153;27343;-77
2022/05/19 13:16:18;;;;;;;3.67;1.70;;;37.00;31.80;;;;;;930108;154;27734;-77